Time;durP1;ratioP1;P1;durP2;ratioP2;P2;SDS_P1;SDS_P2;PMS_P1;PMS_P2;Temp;Humidity;BMP_temperature;BMP_pressure;BME280_temperature;BME280_humidity;BME280_pressure;Samples;Min_cycle;Max_cycle;Signal;HPM_P1;HPM_P2
2022/01/30 00:02:00;;;;;;;12.25;1.80;;;7.10;99.90;;;;;;2584919;54;20115;31
2022/01/30 00:04:34;;;;;;;7.28;1.10;;;7.10;99.90;;;;;;2583821;54;20058;31
2022/01/30 00:07:10;;;;;;;9.90;1.50;;;7.00;99.90;;;;;;2584650;54;19935;31
2022/01/30 00:09:46;;;;;;;15.70;2.50;;;6.80;99.90;;;;;;2585605;54;20093;31
2022/01/30 00:12:32;;;;;;;14.80;2.70;;;6.80;99.90;;;;;;2585533;54;19944;31
2022/01/30 00:15:06;;;;;;;;;;;6.80;99.90;;;;;;2585620;54;20967;31
2022/01/30 00:17:46;;;;;;;7.10;1.45;;;6.70;99.90;;;;;;2604362;46;21838;31
2022/01/30 00:20:23;;;;;;;10.55;2.10;;;6.70;99.90;;;;;;2585855;54;20864;31
2022/01/30 00:23:10;;;;;;;6.50;1.70;;;6.70;99.90;;;;;;2585811;54;20026;31
2022/01/30 00:25:50;;;;;;;11.43;1.70;;;6.60;99.90;;;;;;2585586;54;20097;31
2022/01/30 00:28:27;;;;;;;8.45;1.85;;;6.60;99.90;;;;;;2586168;54;21177;31
2022/01/30 00:31:02;;;;;;;7.60;1.40;;;6.60;99.90;;;;;;2585508;54;20046;31
2022/01/30 00:33:39;;;;;;;9.43;1.97;;;6.60;99.90;;;;;;2585582;54;20036;31
2022/01/30 00:36:17;;;;;;;9.65;1.63;;;6.60;99.90;;;;;;2604163;46;20905;31
2022/01/30 00:38:55;;;;;;;8.75;1.95;;;6.50;99.90;;;;;;2585629;54;20909;31
2022/01/30 00:41:29;;;;;;;9.82;1.60;;;6.50;99.90;;;;;;2585483;54;20053;31
2022/01/30 00:44:08;;;;;;;7.40;1.55;;;6.50;99.90;;;;;;2585812;54;20027;31
2022/01/30 00:46:54;;;;;;;11.10;1.57;;;6.40;99.90;;;;;;2585568;54;20031;31
2022/01/30 00:51:57;;;;;;;13.13;2.17;;;6.30;99.90;;;;;;2604012;46;20889;31
2022/01/30 00:54:33;;;;;;;9.23;1.92;;;6.20;99.90;;;;;;2604395;46;21146;31
2022/01/30 00:59:42;;;;;;;7.68;1.45;;;6.20;99.90;;;;;;2585603;54;20851;31
2022/01/30 01:02:16;;;;;;;9.65;2.30;;;6.20;99.90;;;;;;2584532;54;20026;31
2022/01/30 01:04:52;;;;;;;13.25;2.03;;;6.20;99.90;;;;;;2585222;54;20894;31
2022/01/30 01:07:27;;;;;;;7.13;1.35;;;6.20;99.90;;;;;;2585627;54;20033;31
2022/01/30 01:10:06;;;;;;;9.65;1.60;;;6.30;99.90;;;;;;2585710;54;20915;31
2022/01/30 01:13:03;;;;;;;10.25;1.50;;;6.30;99.90;;;;;;2585488;54;20836;31
2022/01/30 01:26:35;;;;;;;17.55;2.10;;;6.30;99.90;;;;;;2603553;46;20030;31
2022/01/30 01:29:15;;;;;;;7.05;1.70;;;6.30;99.90;;;;;;2585421;54;20120;31
2022/01/30 01:31:53;;;;;;;15.38;1.65;;;6.30;99.90;;;;;;2585571;54;20910;31
2022/01/30 01:37:19;;;;;;;11.00;1.92;;;6.40;99.90;;;;;;2585321;54;20764;31
2022/01/30 01:39:54;;;;;;;8.05;1.65;;;6.30;99.90;;;;;;2683629;39;22340;31
2022/01/30 01:42:32;;;;;;;8.95;1.80;;;6.40;99.90;;;;;;2584556;54;20893;31
2022/01/30 01:45:10;;;;;;;8.90;1.57;;;6.40;99.90;;;;;;2584423;54;20030;31
2022/01/30 01:47:49;;;;;;;11.30;2.22;;;6.40;99.90;;;;;;2585534;54;20296;31
2022/01/30 01:50:38;;;;;;;10.45;1.40;;;6.40;99.90;;;;;;2585527;54;20082;31
2022/01/30 01:53:16;;;;;;;7.53;2.03;;;6.40;99.90;;;;;;2585304;54;20928;31
2022/01/30 01:55:53;;;;;;;7.95;1.88;;;6.40;99.90;;;;;;2585283;54;20769;31
2022/01/30 01:58:32;;;;;;;8.27;1.90;;;6.40;99.90;;;;;;2585486;54;20023;31
2022/01/30 02:01:06;;;;;;;8.40;1.92;;;6.40;99.90;;;;;;2585553;54;21000;31
2022/01/30 02:03:47;;;;;;;6.60;1.43;;;6.40;99.90;;;;;;2585288;54;20026;31
2022/01/30 02:09:13;;;;;;;17.58;2.25;;;6.30;99.90;;;;;;2584996;54;20033;31
2022/01/30 02:11:49;;;;;;;10.05;2.50;;;6.30;99.90;;;;;;2585342;54;20119;31
2022/01/30 02:14:34;;;;;;;9.03;1.97;;;6.30;99.90;;;;;;2603544;46;20925;31
2022/01/30 02:25:49;;;;;;;16.25;2.40;;;6.20;99.90;;;;;;2585143;54;20027;31
2022/01/30 02:28:20;;;;;;;13.52;1.77;;;6.30;99.90;;;;;;2584919;54;20960;31
2022/01/30 02:31:00;;;;;;;11.20;1.85;;;6.20;99.90;;;;;;2585295;54;20089;31
2022/01/30 02:33:36;;;;;;;13.35;1.98;;;6.20;99.90;;;;;;2584310;54;21017;31
2022/01/30 02:36:09;;;;;;;5.10;1.05;;;6.20;99.90;;;;;;2585254;54;20052;31
2022/01/30 02:38:50;;;;;;;10.25;1.67;;;6.20;99.90;;;;;;2584988;54;20152;31
2022/01/30 02:41:25;;;;;;;11.00;1.40;;;6.20;99.90;;;;;;2585359;54;20026;31
2022/01/30 02:44:08;;;;;;;7.20;1.63;;;6.20;99.90;;;;;;2584932;54;20835;31
2022/01/30 02:46:45;;;;;;;8.68;1.80;;;6.30;99.90;;;;;;2585052;54;20110;31
2022/01/30 02:52:14;;;;;;;13.80;1.50;;;6.20;99.90;;;;;;2584870;54;20791;31
2022/01/30 02:54:52;;;;;;;15.65;1.90;;;6.20;99.90;;;;;;2585300;54;20068;31
2022/01/30 02:57:27;;;;;;;11.70;2.00;;;6.20;99.90;;;;;;2584198;54;20138;31
2022/01/30 03:00:02;;;;;;;10.10;1.95;;;6.20;99.90;;;;;;2772633;31;21253;31
2022/01/30 03:02:37;;;;;;;6.57;1.35;;;6.20;99.90;;;;;;2585049;54;20974;31
2022/01/30 03:05:11;;;;;;;8.10;1.90;;;6.20;99.90;;;;;;2584824;54;20109;31
2022/01/30 03:07:48;;;;;;;10.02;1.60;;;6.20;99.90;;;;;;2584940;54;20027;31
2022/01/30 03:10:31;;;;;;;9.85;1.92;;;6.10;99.90;;;;;;2585034;54;20995;31
2022/01/30 03:13:04;;;;;;;10.68;2.38;;;6.10;99.90;;;;;;2584299;54;20986;31
2022/01/30 03:15:42;;;;;;;12.27;1.88;;;6.10;99.90;;;;;;2584999;54;20874;31
2022/01/30 03:18:17;;;;;;;5.32;1.08;;;6.10;99.90;;;;;;2585043;54;20030;31
2022/01/30 03:20:53;;;;;;;11.88;2.13;;;6.10;99.90;;;;;;2603392;46;20026;31
2022/01/30 03:23:38;;;;;;;6.50;1.58;;;6.10;99.90;;;;;;2585035;54;20856;31
2022/01/30 03:26:16;;;;;;;10.60;1.30;;;6.00;99.90;;;;;;2603733;46;20026;31
2022/01/30 03:29:04;;;;;;;10.52;1.58;;;6.00;99.90;;;;;;2603453;46;21931;31
2022/01/30 03:31:44;;;;;;;8.77;1.55;;;6.10;99.90;;;;;;2585048;54;20998;31
2022/01/30 03:34:20;;;;;;;9.57;1.73;;;6.00;99.90;;;;;;2584913;54;21616;31
2022/01/30 03:37:02;;;;;;;14.00;1.80;;;6.00;99.90;;;;;;2585001;54;20817;31
2022/01/30 03:39:40;;;;;;;10.07;1.77;;;6.10;99.90;;;;;;2584969;54;20046;31
2022/01/30 03:42:21;;;;;;;10.75;1.60;;;6.10;99.90;;;;;;2595401;46;20030;31
2022/01/30 03:44:57;;;;;;;12.60;2.00;;;6.10;99.90;;;;;;2586015;54;20033;31
2022/01/30 03:47:31;;;;;;;12.00;2.17;;;6.00;99.90;;;;;;2585528;54;21009;31
2022/01/30 03:50:09;;;;;;;7.70;1.33;;;6.10;99.90;;;;;;2585806;54;20246;31
2022/01/30 03:52:44;;;;;;;10.20;2.47;;;6.00;99.90;;;;;;2585618;54;21779;31
2022/01/30 03:55:24;;;;;;;15.57;1.80;;;5.90;99.90;;;;;;2584843;54;21018;31
2022/01/30 03:58:01;;;;;;;10.13;1.58;;;5.90;99.90;;;;;;2585800;54;20072;31
2022/01/30 04:00:40;;;;;;;10.02;1.75;;;5.90;99.90;;;;;;2604547;46;20893;31
2022/01/30 04:03:16;;;;;;;10.05;1.95;;;5.90;99.90;;;;;;2585762;54;20030;31
2022/01/30 04:08:21;;;;;;;11.10;1.95;;;5.90;99.90;;;;;;2585937;54;22066;31
2022/01/30 04:11:18;;;;;;;8.95;1.60;;;5.90;99.90;;;;;;2586049;54;20081;31
2022/01/30 04:14:16;;;;;;;10.27;2.73;;;5.90;99.90;;;;;;2585744;54;20880;31
2022/01/30 04:17:13;;;;;;;10.93;2.43;;;5.80;99.90;;;;;;2585975;54;20086;31
2022/01/30 04:19:55;;;;;;;14.03;1.60;;;5.80;99.90;;;;;;2585481;54;20352;31
2022/01/30 04:22:37;;;;;;;9.50;1.50;;;5.80;99.90;;;;;;2585468;54;20925;31
2022/01/30 04:25:28;;;;;;;11.55;1.60;;;5.80;99.90;;;;;;2683716;39;22375;31
2022/01/30 04:28:33;;;;;;;9.07;1.92;;;5.80;99.90;;;;;;2585359;54;20790;31
2022/01/30 04:31:26;;;;;;;13.80;2.20;;;5.70;99.90;;;;;;2585543;54;20040;31
2022/01/30 04:34:51;;;;;;;12.13;1.77;;;5.70;99.90;;;;;;2585536;54;20953;31
2022/01/30 04:37:56;;;;;;;10.97;1.47;;;5.70;99.90;;;;;;2603923;46;20409;31
2022/01/30 04:54:06;;;;;;;6.55;1.70;;;5.50;99.90;;;;;;2585188;54;20061;31
2022/01/30 04:56:58;;;;;;;9.80;1.90;;;5.60;99.90;;;;;;2585382;54;20063;31
2022/01/30 05:00:06;;;;;;;8.65;1.35;;;5.60;99.90;;;;;;2586007;54;21173;31
2022/01/30 05:03:03;;;;;;;10.83;1.43;;;5.60;99.90;;;;;;2585473;54;20929;31
2022/01/30 05:05:59;;;;;;;7.00;1.50;;;5.60;99.90;;;;;;2603937;46;21142;31
2022/01/30 05:09:03;;;;;;;8.20;1.15;;;5.60;99.90;;;;;;2603832;46;20819;31
2022/01/30 05:11:47;;;;;;;6.90;1.40;;;5.60;99.90;;;;;;2683414;39;20538;31
2022/01/30 05:14:42;;;;;;;9.18;1.67;;;5.70;99.90;;;;;;2585855;54;20937;31
2022/01/30 05:17:40;;;;;;;8.45;1.10;;;5.60;99.90;;;;;;2585252;54;21536;31
2022/01/30 05:20:21;;;;;;;10.60;1.40;;;5.60;99.90;;;;;;2585481;54;20032;31
2022/01/30 05:23:03;;;;;;;5.75;1.30;;;5.60;99.90;;;;;;2585461;54;20146;31
2022/01/30 05:26:14;;;;;;;12.68;1.92;;;5.70;99.90;;;;;;2585285;54;20026;31
2022/01/30 05:29:11;;;;;;;9.13;1.13;;;5.60;99.90;;;;;;2604307;46;20952;31
2022/01/30 05:32:05;;;;;;;9.45;1.42;;;5.60;99.90;;;;;;2585258;54;20089;31
2022/01/30 05:34:52;;;;;;;8.30;2.00;;;5.60;99.90;;;;;;2585282;54;20026;31
2022/01/30 05:37:33;;;;;;;12.47;2.40;;;5.60;99.90;;;;;;2683607;39;22311;31
2022/01/30 05:40:30;;;;;;;11.68;2.20;;;5.60;99.90;;;;;;2683813;39;21061;31
2022/01/30 05:43:19;;;;;;;6.72;1.02;;;5.60;99.90;;;;;;2585399;54;20112;31
2022/01/30 05:46:30;;;;;;;6.47;1.50;;;5.60;99.90;;;;;;2585018;54;21016;31
2022/01/30 05:49:21;;;;;;;9.95;1.40;;;5.50;99.90;;;;;;2585466;54;20026;31
2022/01/30 05:52:16;;;;;;;9.53;1.37;;;5.50;99.90;;;;;;2585141;54;21020;31
2022/01/30 05:55:05;;;;;;;8.70;1.40;;;5.50;99.90;;;;;;2585497;54;20053;31
2022/01/30 05:57:43;;;;;;;8.90;1.33;;;5.40;99.90;;;;;;2585308;54;20092;31
2022/01/30 06:03:00;;;;;;;7.70;1.55;;;5.40;99.90;;;;;;2585309;54;20943;31
2022/01/30 06:05:45;;;;;;;9.75;2.40;;;5.30;99.90;;;;;;2585118;54;21022;31
2022/01/30 06:08:39;;;;;;;8.25;1.10;;;5.30;99.90;;;;;;2585216;54;20034;31
2022/01/30 06:11:19;;;;;;;8.30;1.30;;;5.20;99.90;;;;;;2585377;54;20069;31
2022/01/30 06:13:56;;;;;;;6.10;1.10;;;5.10;99.90;;;;;;2585202;54;20654;31
2022/01/30 06:16:32;;;;;;;5.10;1.30;;;5.10;99.90;;;;;;2584916;54;20034;31
2022/01/30 06:19:22;;;;;;;9.60;1.60;;;5.00;99.90;;;;;;2585303;54;20033;31
2022/01/30 06:22:28;;;;;;;7.07;0.93;;;5.00;99.90;;;;;;2585352;54;20089;31
2022/01/30 06:25:41;;;;;;;9.32;1.20;;;4.80;99.90;;;;;;2585089;54;20049;31
2022/01/30 06:28:39;;;;;;;11.60;1.20;;;4.80;99.90;;;;;;2585398;54;20869;31
2022/01/30 06:31:17;;;;;;;4.90;1.10;;;4.70;99.90;;;;;;2603833;46;20026;31
2022/01/30 06:34:22;;;;;;;4.85;0.73;;;4.70;99.90;;;;;;2585315;54;21000;31
2022/01/30 06:37:14;;;;;;;5.25;1.40;;;4.70;99.90;;;;;;2585299;54;20995;31
2022/01/30 06:40:01;;;;;;;6.55;1.63;;;4.70;99.90;;;;;;2585054;54;20046;31
2022/01/30 06:43:00;;;;;;;7.35;1.00;;;4.70;99.90;;;;;;2584985;54;20173;31
2022/01/30 06:45:56;;;;;;;12.48;1.95;;;4.70;99.90;;;;;;2585455;54;20023;31
2022/01/30 06:48:47;;;;;;;9.03;1.17;;;4.80;99.90;;;;;;2585380;54;20929;31
2022/01/30 06:51:43;;;;;;;7.40;1.10;;;4.80;99.90;;;;;;2585443;54;21225;31
2022/01/30 06:57:30;;;;;;;8.10;1.15;;;4.80;99.90;;;;;;2585346;54;20922;31
2022/01/30 07:03:16;;;;;;;6.80;1.50;;;4.80;99.90;;;;;;2585349;54;20066;31
2022/01/30 07:06:03;;;;;;;9.25;1.40;;;4.70;99.90;;;;;;2585302;54;20026;31
2022/01/30 07:08:49;;;;;;;9.37;1.43;;;4.70;99.90;;;;;;2585031;54;20048;31
2022/01/30 07:11:24;;;;;;;8.67;1.47;;;4.70;99.90;;;;;;2585234;54;19996;31
2022/01/30 07:13:59;;;;;;;10.85;2.00;;;4.70;99.90;;;;;;2584939;54;20026;31
2022/01/30 07:16:37;;;;;;;10.68;1.52;;;4.70;99.90;;;;;;2585073;54;20774;31
2022/01/30 07:19:13;;;;;;;12.70;1.80;;;4.70;99.90;;;;;;2584983;54;20086;31
2022/01/30 07:21:50;;;;;;;6.13;1.38;;;4.70;99.90;;;;;;2585243;54;20046;31
2022/01/30 07:24:27;;;;;;;6.77;1.50;;;4.70;99.90;;;;;;2585103;54;20915;31
2022/01/30 07:27:05;;;;;;;9.10;1.50;;;4.70;99.90;;;;;;2584340;54;20037;31
2022/01/30 07:29:40;;;;;;;11.40;1.20;;;4.70;99.90;;;;;;2585132;54;20771;31
2022/01/30 07:32:15;;;;;;;9.85;1.70;;;4.70;99.90;;;;;;2585136;54;22583;31
2022/01/30 07:34:52;;;;;;;10.80;1.93;;;4.60;99.90;;;;;;2585257;54;20992;31
2022/01/30 07:37:25;;;;;;;7.30;1.00;;;4.70;99.90;;;;;;2585219;54;20085;31
2022/01/30 07:40:02;;;;;;;8.23;1.60;;;4.80;99.90;;;;;;2585020;54;20887;31
2022/01/30 07:42:36;;;;;;;7.75;1.35;;;4.80;99.90;;;;;;2603256;47;20030;31
2022/01/30 07:45:13;;;;;;;9.35;1.55;;;4.80;99.90;;;;;;2585167;54;20036;31
2022/01/30 07:47:47;;;;;;;13.75;2.03;;;4.90;99.90;;;;;;2603644;47;20030;31
2022/01/30 07:50:22;;;;;;;9.98;2.83;;;4.90;99.90;;;;;;2585231;54;20886;31
2022/01/30 07:52:57;;;;;;;10.70;1.50;;;4.90;99.90;;;;;;2603419;47;20060;31
2022/01/30 07:55:37;;;;;;;9.77;2.23;;;4.90;99.90;;;;;;2683253;39;21046;31
2022/01/30 07:58:14;;;;;;;10.03;2.00;;;4.90;99.90;;;;;;2584854;54;20026;31
2022/01/30 08:00:47;;;;;;;8.52;2.30;;;4.90;99.90;;;;;;2585113;54;20957;31
2022/01/30 08:03:22;;;;;;;15.25;2.35;;;5.00;99.90;;;;;;2584086;54;20946;31
2022/01/30 08:05:57;;;;;;;13.35;1.80;;;5.00;99.90;;;;;;2584962;54;20758;31
2022/01/30 08:08:33;;;;;;;13.48;1.73;;;5.00;99.90;;;;;;2603493;47;21140;31
2022/01/30 08:13:39;;;;;;;12.27;2.40;;;5.20;99.90;;;;;;2603659;47;20887;31
2022/01/30 08:16:14;;;;;;;10.48;2.05;;;5.20;99.90;;;;;;2603282;47;20061;31
2022/01/30 08:18:52;;;;;;;7.95;1.10;;;5.30;99.90;;;;;;2584715;54;20933;31
2022/01/30 08:21:28;;;;;;;8.73;1.60;;;5.30;99.90;;;;;;2701590;39;22306;31
2022/01/30 08:24:06;;;;;;;;;;;5.30;99.90;;;;;;2595093;47;20924;31
2022/01/30 08:26:44;;;;;;;7.90;1.20;;;5.40;99.90;;;;;;2584827;54;20775;31
2022/01/30 08:29:21;;;;;;;14.37;2.10;;;5.40;99.90;;;;;;2584583;54;20033;31
2022/01/30 08:34:25;;;;;;;6.60;2.23;;;5.40;99.90;;;;;;2603919;46;20137;31
2022/01/30 08:37:01;;;;;;;13.43;2.20;;;5.40;99.90;;;;;;2585646;54;20049;31
2022/01/30 08:39:37;;;;;;;13.00;1.75;;;5.50;99.90;;;;;;2585499;54;20313;31
2022/01/30 08:42:13;;;;;;;11.18;2.03;;;5.50;99.90;;;;;;2604226;46;22080;31
2022/01/30 08:47:39;;;;;;;15.95;2.08;;;5.50;99.90;;;;;;2585520;54;20806;31
2022/01/30 08:50:16;;;;;;;14.77;3.30;;;5.60;99.90;;;;;;2701708;39;21459;31
2022/01/30 08:52:51;;;;;;;15.10;3.00;;;5.60;99.90;;;;;;2585547;54;20027;31
2022/01/30 08:55:29;;;;;;;10.32;2.05;;;5.60;99.90;;;;;;2585562;54;21535;31
2022/01/30 09:01:00;;;;;;;9.60;2.13;;;5.70;99.90;;;;;;2585549;54;20053;31
2022/01/30 09:03:43;;;;;;;12.52;2.65;;;5.70;99.90;;;;;;2585615;54;20046;31
2022/01/30 09:06:24;;;;;;;14.15;3.60;;;5.70;99.90;;;;;;2585656;54;20032;31
2022/01/30 09:09:11;;;;;;;7.50;1.60;;;5.70;99.90;;;;;;2604028;46;20889;31
2022/01/30 09:11:44;;;;;;;7.93;0.85;;;5.70;99.90;;;;;;2585460;54;20027;31
2022/01/30 09:14:21;;;;;;;10.10;1.58;;;5.80;99.90;;;;;;2585551;54;20032;31
2022/01/30 09:17:01;;;;;;;14.30;2.20;;;5.70;99.90;;;;;;2584747;54;20054;31
2022/01/30 09:19:47;;;;;;;11.30;2.20;;;5.70;99.90;;;;;;2585555;54;19957;31
2022/01/30 09:22:23;;;;;;;14.20;2.15;;;5.60;99.90;;;;;;2585464;54;20689;31
2022/01/30 09:24:57;;;;;;;12.40;2.00;;;5.60;99.90;;;;;;2585461;54;20054;31
2022/01/30 09:27:30;;;;;;;8.53;2.17;;;5.70;99.90;;;;;;2602109;46;20022;31
2022/01/30 09:30:06;;;;;;;9.02;2.13;;;5.70;99.90;;;;;;2584739;54;20260;31
2022/01/30 09:32:49;;;;;;;10.38;2.15;;;5.60;99.90;;;;;;2585465;54;20688;31
2022/01/30 09:35:25;;;;;;;13.05;2.40;;;5.70;99.90;;;;;;2603922;46;20804;31
2022/01/30 09:38:01;;;;;;;11.63;2.78;;;5.60;99.90;;;;;;2584609;54;20989;31
2022/01/30 09:40:34;;;;;;;9.90;1.77;;;5.60;99.90;;;;;;2584502;54;20148;31
2022/01/30 09:43:09;;;;;;;13.70;2.30;;;5.50;99.90;;;;;;2683282;39;22370;31
2022/01/30 09:45:48;;;;;;;12.02;2.15;;;5.50;99.90;;;;;;2584448;54;20905;31
2022/01/30 09:48:28;;;;;;;12.82;1.77;;;5.50;99.90;;;;;;2584576;54;20034;31
2022/01/30 09:51:04;;;;;;;13.68;2.33;;;5.40;99.90;;;;;;2585314;54;20929;31
2022/01/30 09:53:39;;;;;;;13.80;2.00;;;5.20;99.90;;;;;;2585401;54;20157;31
2022/01/30 09:56:12;;;;;;;9.25;2.63;;;5.20;99.90;;;;;;2603735;46;20791;31
2022/01/30 09:58:47;;;;;;;14.55;2.35;;;5.20;99.90;;;;;;2585674;54;20053;31
2022/01/30 10:01:22;;;;;;;13.00;2.00;;;5.20;99.90;;;;;;2584359;54;20104;31
2022/01/30 10:04:00;;;;;;;12.35;2.15;;;5.10;99.90;;;;;;2682414;39;20482;31
2022/01/30 10:06:51;;;;;;;8.75;2.05;;;5.10;99.90;;;;;;2585279;54;20931;31
2022/01/30 10:09:27;;;;;;;15.50;2.65;;;5.00;99.90;;;;;;2603548;46;20809;31
2022/01/30 10:14:57;;;;;;;8.63;1.70;;;5.10;99.90;;;;;;2603134;46;20803;31
2022/01/30 10:17:37;;;;;;;15.00;3.77;;;5.00;99.90;;;;;;2585292;54;20108;31
2022/01/30 10:20:40;;;;;;;12.63;2.50;;;5.00;99.90;;;;;;2585265;54;19941;31
2022/01/30 10:23:18;;;;;;;16.95;3.00;;;4.90;99.90;;;;;;2603396;46;20026;31
2022/01/30 10:25:52;;;;;;;;;;;4.90;99.90;;;;;;2584975;54;20026;31
2022/01/30 10:28:38;;;;;;;15.55;3.90;;;4.90;99.90;;;;;;2585416;54;19935;31
2022/01/30 10:31:32;;;;;;;12.60;2.77;;;4.90;99.90;;;;;;2584848;54;20027;31
2022/01/30 10:34:21;;;;;;;17.83;2.70;;;4.90;99.90;;;;;;2585349;54;20234;31
2022/01/30 10:36:58;;;;;;;19.95;3.55;;;4.90;99.90;;;;;;2590654;46;20257;31
2022/01/30 10:39:35;;;;;;;19.30;3.55;;;4.90;99.90;;;;;;2585450;54;20137;31
2022/01/30 10:42:15;;;;;;;20.27;3.03;;;4.90;99.90;;;;;;2584628;54;20764;31
2022/01/30 10:45:12;;;;;;;12.20;1.90;;;5.00;99.90;;;;;;2585292;54;20960;31
2022/01/30 10:47:48;;;;;;;19.45;3.03;;;5.10;99.90;;;;;;2584153;54;20152;31
2022/01/30 10:50:24;;;;;;;16.40;3.10;;;5.30;99.90;;;;;;2603829;46;20093;31
2022/01/30 10:53:03;;;;;;;14.45;3.13;;;5.30;99.90;;;;;;2584252;54;20089;31
2022/01/30 10:55:48;;;;;;;13.10;2.70;;;5.30;99.90;;;;;;2585313;54;21060;31
2022/01/30 11:01:13;;;;;;;18.07;2.80;;;5.20;99.90;;;;;;2603584;46;20863;31
2022/01/30 11:03:54;;;;;;;17.55;3.30;;;5.10;99.90;;;;;;2585391;54;21967;31
2022/01/30 11:06:30;;;;;;;17.03;2.77;;;5.10;99.90;;;;;;2585090;54;20038;31
2022/01/30 11:09:09;;;;;;;19.38;3.35;;;5.10;99.90;;;;;;2585339;54;22843;31
2022/01/30 11:11:50;;;;;;;13.90;3.03;;;5.10;99.90;;;;;;2584994;54;20056;31
2022/01/30 11:14:35;;;;;;;17.83;3.10;;;5.20;99.90;;;;;;2585037;54;20157;31
2022/01/30 11:17:15;;;;;;;17.20;3.67;;;5.10;99.90;;;;;;2603449;46;20898;31
2022/01/30 11:20:00;;;;;;;25.00;4.00;;;5.20;99.90;;;;;;2585083;54;20044;31
2022/01/30 11:22:37;;;;;;;16.73;2.70;;;5.20;99.90;;;;;;2603578;46;20031;31
2022/01/30 11:25:20;;;;;;;10.05;2.75;;;5.30;99.90;;;;;;2584517;54;20033;31
2022/01/30 11:28:04;;;;;;;17.20;3.43;;;5.30;99.90;;;;;;2584126;54;22040;31
2022/01/30 11:30:59;;;;;;;8.57;2.25;;;5.30;99.90;;;;;;2602866;46;20322;31
2022/01/30 11:33:52;;;;;;;11.18;2.80;;;5.30;99.90;;;;;;2584961;54;20734;31
2022/01/30 11:39:00;;;;;;;21.80;3.22;;;5.40;99.90;;;;;;2603199;46;19934;31
2022/01/30 11:41:39;;;;;;;14.50;2.55;;;5.40;99.90;;;;;;2584017;54;20018;31
2022/01/30 11:50:53;;;;;;;12.90;2.40;;;5.50;99.90;;;;;;2584882;54;20053;31
2022/01/30 11:53:30;;;;;;;17.67;3.43;;;5.50;99.90;;;;;;2584745;54;20172;31
2022/01/30 11:56:12;;;;;;;16.25;3.50;;;5.50;99.90;;;;;;2584998;54;20045;31
2022/01/30 11:58:49;;;;;;;14.10;2.95;;;5.50;99.90;;;;;;2585114;54;20957;31
2022/01/30 12:01:36;;;;;;;15.35;2.95;;;5.50;99.90;;;;;;2584813;54;20030;31
2022/01/30 12:04:25;;;;;;;16.20;3.92;;;5.50;99.90;;;;;;2585355;54;20033;31
2022/01/30 12:07:15;;;;;;;16.10;2.35;;;5.60;99.90;;;;;;2585750;54;20108;31
2022/01/30 12:12:26;;;;;;;13.57;3.23;;;5.60;99.90;;;;;;2585649;54;20304;31
2022/01/30 12:15:07;;;;;;;23.00;4.20;;;5.60;99.90;;;;;;2585089;54;21138;31
2022/01/30 12:17:57;;;;;;;16.35;3.35;;;5.60;99.90;;;;;;2604145;46;20136;31
2022/01/30 12:20:33;;;;;;;14.95;2.95;;;5.60;99.90;;;;;;2589159;46;20969;31
2022/01/30 12:23:11;;;;;;;11.75;2.15;;;5.60;99.90;;;;;;2585594;54;20904;31
2022/01/30 12:25:54;;;;;;;17.00;3.42;;;5.50;99.90;;;;;;2585299;54;21005;31
2022/01/30 12:28:29;;;;;;;11.60;2.25;;;5.60;99.90;;;;;;2585498;54;20041;31
2022/01/30 12:31:06;;;;;;;11.13;2.10;;;5.60;99.90;;;;;;2585737;54;20026;31
2022/01/30 12:33:48;;;;;;;20.75;3.22;;;5.50;99.90;;;;;;2585217;54;20026;31
2022/01/30 12:36:25;;;;;;;15.45;3.15;;;5.50;99.90;;;;;;2585503;54;20030;31
2022/01/30 12:38:59;;;;;;;9.70;2.30;;;5.50;99.90;;;;;;2585568;54;20033;31
2022/01/30 12:41:38;;;;;;;19.35;3.25;;;5.50;99.90;;;;;;2585391;54;20806;31
2022/01/30 12:44:12;;;;;;;12.35;2.60;;;5.60;99.90;;;;;;2585838;54;20050;31
2022/01/30 12:46:49;;;;;;;10.95;2.05;;;5.50;99.90;;;;;;2584794;54;20054;31
2022/01/30 12:49:27;;;;;;;14.02;2.40;;;5.50;99.90;;;;;;2603764;46;20026;31
2022/01/30 12:52:20;;;;;;;15.05;3.20;;;5.50;99.90;;;;;;2585798;54;20073;31
2022/01/30 12:57:35;;;;;;;14.70;2.50;;;5.50;99.90;;;;;;2604467;46;19981;31
2022/01/30 13:00:12;;;;;;;11.80;3.00;;;5.50;99.90;;;;;;2585841;54;20049;31
2022/01/30 13:02:55;;;;;;;12.00;2.40;;;5.50;99.90;;;;;;2585500;54;20093;31
2022/01/30 13:05:34;;;;;;;15.55;3.20;;;5.50;99.90;;;;;;2585405;54;20049;31
2022/01/30 13:08:09;;;;;;;14.75;2.53;;;5.50;99.90;;;;;;2585687;54;20085;31
2022/01/30 13:10:44;;;;;;;19.95;3.05;;;5.50;99.90;;;;;;2585555;54;20033;31
2022/01/30 13:13:23;;;;;;;8.60;2.60;;;5.50;99.90;;;;;;2585658;54;20932;31
2022/01/30 13:16:00;;;;;;;15.23;3.13;;;5.50;99.90;;;;;;2585553;54;20026;31
2022/01/30 13:18:45;;;;;;;10.50;1.90;;;5.50;99.90;;;;;;2584453;54;21294;31
2022/01/30 13:21:23;;;;;;;13.50;3.10;;;5.50;99.90;;;;;;2603726;46;20235;31
2022/01/30 13:23:59;;;;;;;13.98;3.20;;;5.50;99.90;;;;;;2585476;54;20146;31
2022/01/30 13:26:41;;;;;;;17.60;2.83;;;5.50;99.90;;;;;;2585308;54;20052;31
2022/01/30 13:29:22;;;;;;;16.92;3.47;;;5.50;99.90;;;;;;2585191;54;20127;31
2022/01/30 13:32:00;;;;;;;16.45;3.30;;;5.50;99.90;;;;;;2585624;54;21929;31
2022/01/30 13:34:35;;;;;;;;;;;5.50;99.90;;;;;;2584906;54;20030;31
2022/01/30 13:37:20;;;;;;;14.50;2.87;;;5.50;99.90;;;;;;2585441;54;20848;31
2022/01/30 13:40:13;;;;;;;12.35;2.60;;;5.50;99.90;;;;;;2682807;39;20564;31
2022/01/30 13:42:55;;;;;;;16.83;3.30;;;5.50;99.90;;;;;;2604089;46;20089;31
2022/01/30 13:48:24;;;;;;;15.85;3.90;;;5.50;99.90;;;;;;2585305;54;20022;31
2022/01/30 13:53:35;;;;;;;11.47;2.50;;;5.50;99.90;;;;;;2585113;54;20933;31
2022/01/30 13:56:16;;;;;;;24.85;3.30;;;5.50;99.90;;;;;;2585612;54;20926;31
2022/01/30 13:58:58;;;;;;;20.30;3.20;;;5.50;99.90;;;;;;2585697;54;22438;31
2022/01/30 14:01:37;;;;;;;17.50;3.20;;;5.50;99.90;;;;;;2585205;54;20062;31
2022/01/30 14:04:14;;;;;;;19.75;4.45;;;5.50;99.90;;;;;;2603174;46;21026;31
2022/01/30 14:06:49;;;;;;;25.50;3.67;;;5.50;99.90;;;;;;2592863;46;20997;31
2022/01/30 14:09:30;;;;;;;20.95;3.65;;;5.50;99.90;;;;;;2602059;46;21002;31
2022/01/30 14:12:04;;;;;;;20.65;3.75;;;5.50;99.90;;;;;;2585224;54;20155;31
2022/01/30 14:14:40;;;;;;;15.20;3.05;;;5.60;99.90;;;;;;2585376;54;20053;31
2022/01/30 14:17:20;;;;;;;17.92;3.92;;;5.50;99.90;;;;;;2585438;54;20153;31
2022/01/30 14:20:15;;;;;;;21.88;3.95;;;5.50;99.90;;;;;;2585230;54;20982;31
2022/01/30 14:23:04;;;;;;;22.97;3.30;;;5.50;99.90;;;;;;2585312;54;20133;31
2022/01/30 14:25:39;;;;;;;24.70;3.90;;;5.50;99.90;;;;;;2585019;54;20285;31
2022/01/30 14:31:13;;;;;;;19.08;3.47;;;5.50;99.90;;;;;;2682815;39;20400;31
2022/01/30 14:39:39;;;;;;;15.20;3.90;;;5.50;99.90;;;;;;2584954;54;20973;31
2022/01/30 14:45:03;;;;;;;20.85;4.20;;;5.40;99.90;;;;;;2595749;46;21023;31
2022/01/30 14:47:39;;;;;;;16.85;3.45;;;5.40;99.90;;;;;;2603373;46;20915;31
2022/01/30 14:50:20;;;;;;;15.77;3.87;;;5.50;99.90;;;;;;2585218;54;20153;31
2022/01/30 14:55:45;;;;;;;24.27;4.73;;;5.40;99.90;;;;;;2584580;54;20059;31
2022/01/30 14:58:34;;;;;;;20.05;3.63;;;5.40;99.90;;;;;;2683150;39;20524;31
2022/01/30 15:01:11;;;;;;;19.50;4.30;;;5.50;99.90;;;;;;2585177;54;20117;31
2022/01/30 15:04:01;;;;;;;22.00;4.00;;;5.50;99.90;;;;;;2585414;54;20958;31
2022/01/30 15:06:48;;;;;;;17.40;3.38;;;5.50;99.90;;;;;;2584682;54;20034;31
2022/01/30 15:09:31;;;;;;;21.98;4.22;;;5.50;99.90;;;;;;2585207;54;20026;31
2022/01/30 15:12:13;;;;;;;25.00;3.70;;;5.50;99.90;;;;;;2585108;54;20136;31
2022/01/30 15:14:55;;;;;;;17.37;3.50;;;5.50;99.90;;;;;;2585025;54;21210;31
2022/01/30 15:17:34;;;;;;;18.30;3.75;;;5.50;99.90;;;;;;2603801;46;21153;31
2022/01/30 15:20:24;;;;;;;23.52;3.97;;;5.60;99.90;;;;;;2584958;54;20089;31
2022/01/30 15:23:07;;;;;;;26.70;4.85;;;5.60;99.90;;;;;;2585151;54;20940;31
2022/01/30 15:25:44;;;;;;;27.23;5.07;;;5.60;99.90;;;;;;2584115;54;20026;31
2022/01/30 15:28:22;;;;;;;23.37;4.53;;;5.60;99.90;;;;;;2585005;54;20254;31
2022/01/30 15:31:00;;;;;;;24.97;4.60;;;5.60;99.90;;;;;;2583983;54;20258;31
2022/01/30 15:33:37;;;;;;;18.80;4.32;;;5.60;99.90;;;;;;2584919;54;20854;31
2022/01/30 15:36:13;;;;;;;22.10;4.50;;;5.60;99.90;;;;;;2602786;46;20026;31
2022/01/30 15:38:54;;;;;;;25.55;4.85;;;5.60;99.90;;;;;;2584114;54;20840;31
2022/01/30 15:41:43;;;;;;;16.63;4.00;;;5.50;99.90;;;;;;2584444;54;20052;31
2022/01/30 15:44:19;;;;;;;15.30;3.53;;;5.60;99.90;;;;;;2585020;54;21038;31
2022/01/30 15:52:43;;;;;;;25.67;4.55;;;5.50;99.90;;;;;;2584223;54;20023;31
2022/01/30 15:55:30;;;;;;;16.60;3.33;;;5.50;99.90;;;;;;2584715;54;20088;31
2022/01/30 15:58:08;;;;;;;;;;;5.50;99.90;;;;;;2585460;54;20953;31
2022/01/30 16:00:43;;;;;;;23.33;4.63;;;5.50;99.90;;;;;;2603678;47;19934;31
2022/01/30 16:03:17;;;;;;;16.23;4.18;;;5.60;99.90;;;;;;2584745;54;20851;31
2022/01/30 16:06:02;;;;;;;22.50;4.40;;;5.50;99.90;;;;;;2584084;54;20034;31
2022/01/30 16:11:48;;;;;;;18.65;4.32;;;5.50;99.90;;;;;;2603155;47;20956;31
2022/01/30 16:17:09;;;;;;;20.20;4.50;;;5.50;99.90;;;;;;2584750;54;20977;31